createdAt,value
2018-11-14T00:00:46.311Z,17.42
2018-11-14T00:03:13.859Z,20.62
2018-11-14T00:05:41.307Z,22.40
2018-11-14T00:08:08.868Z,28.25
2018-11-14T00:10:36.463Z,17.00
2018-11-14T00:13:03.766Z,24.90
2018-11-14T00:15:31.274Z,19.62
2018-11-14T00:17:58.539Z,26.33
2018-11-14T00:20:25.828Z,23.62
2018-11-14T00:22:53.370Z,27.02
2018-11-14T00:25:20.684Z,27.50
2018-11-14T00:27:48.002Z,25.27
2018-11-14T00:30:19.441Z,24.25
2018-11-14T00:32:46.650Z,22.80
2018-11-14T00:35:14.375Z,21.40
2018-11-14T00:37:42.341Z,26.77
2018-11-14T00:40:12.548Z,25.32
2018-11-14T00:42:40.203Z,27.05
2018-11-14T00:45:08.640Z,20.02
2018-11-14T00:47:37.237Z,18.90
2018-11-14T00:50:05.624Z,25.48
2018-11-14T00:52:33.185Z,22.55
2018-11-14T00:55:00.501Z,24.00
2018-11-14T00:57:27.819Z,21.48
2018-11-14T00:59:55.202Z,24.77
2018-11-14T01:02:22.487Z,24.95
2018-11-14T01:04:49.838Z,22.67
2018-11-14T01:07:17.133Z,29.77
2018-11-14T01:09:44.463Z,23.38
2018-11-14T01:12:12.284Z,21.95
2018-11-14T01:14:39.647Z,26.90
2018-11-14T01:17:07.193Z,25.32
2018-11-14T01:19:34.706Z,30.45
2018-11-14T01:22:02.319Z,23.42
2018-11-14T01:24:29.675Z,24.80
2018-11-14T01:26:57.304Z,25.17
2018-11-14T01:29:24.636Z,29.40
2018-11-14T01:31:52.070Z,27.60
2018-11-14T01:34:19.365Z,30.72
2018-11-14T01:36:47.406Z,25.88
2018-11-14T01:39:14.748Z,26.65
2018-11-14T01:41:42.280Z,31.55
2018-11-14T01:44:09.599Z,40.65
2018-11-14T01:46:37.775Z,35.52
2018-11-14T01:49:05.494Z,30.90
2018-11-14T01:51:32.870Z,32.55
2018-11-14T01:54:00.240Z,35.65
2018-11-14T01:56:27.656Z,32.03
2018-11-14T01:58:55.643Z,35.20
2018-11-14T02:01:23.179Z,38.25
2018-11-14T02:03:50.691Z,34.43
2018-11-14T02:06:18.027Z,34.43
2018-11-14T02:08:45.590Z,46.80
2018-11-14T02:11:12.938Z,33.75
2018-11-14T02:13:40.463Z,38.73
2018-11-14T02:16:07.929Z,36.15
2018-11-14T02:18:35.901Z,36.93
2018-11-14T02:21:03.164Z,34.23
2018-11-14T02:23:30.447Z,43.90
2018-11-14T02:25:57.744Z,43.50
2018-11-14T02:28:25.278Z,37.83
2018-11-14T02:30:52.843Z,40.15
2018-11-14T02:33:20.394Z,40.10
2018-11-14T02:35:47.708Z,40.92
2018-11-14T02:38:15.028Z,44.55
2018-11-14T02:40:42.586Z,39.05
2018-11-14T02:43:10.142Z,36.83
2018-11-14T02:45:37.465Z,48.87
2018-11-14T02:48:04.828Z,41.53
2018-11-14T02:50:32.176Z,40.73
2018-11-14T02:52:59.583Z,40.10
2018-11-14T02:55:26.886Z,51.33
2018-11-14T02:57:54.274Z,49.45
2018-11-14T03:00:22.441Z,45.55
2018-11-14T03:02:50.012Z,45.92
2018-11-14T03:05:17.748Z,46.58
2018-11-14T03:07:45.359Z,41.80
2018-11-14T03:10:13.700Z,49.15
2018-11-14T03:12:41.200Z,41.20
2018-11-14T03:15:09.535Z,45.28
2018-11-14T03:17:37.743Z,38.55
2018-11-14T03:20:06.276Z,48.25
2018-11-14T03:22:33.850Z,48.52
2018-11-14T03:25:01.145Z,44.95
2018-11-14T03:27:28.508Z,44.13
2018-11-14T03:29:55.813Z,44.65
2018-11-14T03:32:23.355Z,42.73
2018-11-14T03:34:50.635Z,45.15
2018-11-14T03:37:18.224Z,55.08
2018-11-14T03:39:45.770Z,44.13
2018-11-14T03:42:13.067Z,44.15
2018-11-14T03:44:40.584Z,49.95
2018-11-14T03:47:08.107Z,48.13
2018-11-14T03:49:35.851Z,47.90
2018-11-14T03:52:03.179Z,46.05
2018-11-14T03:54:30.479Z,51.18
2018-11-14T03:56:57.842Z,52.80
2018-11-14T03:59:25.288Z,45.52
2018-11-14T04:01:52.815Z,42.60
2018-11-14T04:04:20.209Z,54.73
2018-11-14T04:06:47.964Z,50.50
2018-11-14T04:09:15.630Z,46.42
2018-11-14T04:11:42.883Z,48.28
2018-11-14T04:14:10.405Z,48.13
2018-11-14T04:16:37.718Z,47.53
2018-11-14T04:19:05.773Z,55.10
2018-11-14T04:21:33.315Z,50.65
2018-11-14T04:24:00.612Z,51.35
2018-11-14T04:26:27.922Z,51.90
2018-11-14T04:28:55.204Z,48.17
2018-11-14T04:31:22.807Z,63.90
2018-11-14T04:33:50.150Z,45.50
2018-11-14T04:36:17.517Z,44.85
2018-11-14T04:38:44.827Z,50.90
2018-11-14T04:41:12.152Z,47.73
2018-11-14T04:43:39.701Z,51.65
2018-11-14T04:46:07.192Z,53.58
2018-11-14T04:48:34.545Z,48.68
2018-11-14T04:51:01.925Z,46.20
2018-11-14T04:53:29.256Z,48.92
2018-11-14T04:55:56.594Z,51.60
2018-11-14T04:58:23.966Z,51.18
2018-11-14T05:00:51.615Z,49.75
2018-11-14T05:03:19.047Z,53.40
2018-11-14T05:05:46.395Z,47.67
2018-11-14T05:08:13.993Z,46.80
2018-11-14T05:10:41.779Z,44.83
2018-11-14T05:13:09.203Z,46.55
2018-11-14T05:15:36.798Z,58.70
2018-11-14T05:18:04.097Z,51.58
2018-11-14T05:20:31.649Z,50.78
2018-11-14T05:22:59.191Z,57.88
2018-11-14T05:25:26.736Z,56.70
2018-11-14T05:27:54.139Z,49.50
2018-11-14T05:30:23.057Z,46.63
2018-11-14T05:32:50.928Z,48.83
2018-11-14T05:35:18.312Z,44.45
2018-11-14T05:37:46.019Z,44.58
2018-11-14T05:40:15.217Z,42.60
2018-11-14T05:42:43.094Z,50.67
2018-11-14T05:45:12.669Z,41.50
2018-11-14T05:47:40.451Z,44.95
2018-11-14T05:50:09.013Z,43.75
2018-11-14T05:52:36.367Z,44.35
2018-11-14T05:55:03.805Z,40.28
2018-11-14T05:57:31.071Z,47.60
2018-11-14T05:59:58.640Z,43.38
2018-11-14T06:02:26.088Z,49.20
2018-11-14T06:04:53.648Z,52.60
2018-11-14T06:07:21.061Z,53.42
2018-11-14T06:09:48.397Z,54.10
2018-11-14T06:12:15.716Z,50.23
2018-11-14T06:14:43.080Z,46.60
2018-11-14T06:17:10.391Z,43.85
2018-11-14T06:19:37.704Z,47.40
2018-11-14T06:22:05.321Z,41.20
2018-11-14T06:24:32.687Z,42.73
2018-11-14T06:27:00.139Z,36.70
2018-11-14T06:29:27.508Z,36.58
2018-11-14T06:31:55.056Z,36.73
2018-11-14T06:34:23.055Z,38.98
2018-11-14T06:36:50.895Z,43.10
2018-11-14T06:39:18.505Z,42.23
2018-11-14T06:41:45.994Z,43.13
2018-11-14T06:44:13.521Z,37.88
2018-11-14T06:46:40.862Z,41.63
2018-11-14T06:49:08.516Z,39.08
2018-11-14T06:51:35.853Z,37.05
2018-11-14T06:54:03.762Z,46.37
2018-11-14T06:56:31.172Z,40.05
2018-11-14T06:58:58.685Z,38.25
2018-11-14T07:01:25.940Z,38.70
2018-11-14T07:03:53.548Z,41.90
2018-11-14T07:06:20.888Z,37.23
2018-11-14T07:08:48.467Z,33.73
2018-11-14T07:11:16.207Z,35.35
2018-11-14T07:13:43.835Z,36.85
2018-11-14T07:16:11.399Z,35.90
2018-11-14T07:18:38.777Z,36.13
2018-11-14T07:21:06.445Z,45.35
2018-11-14T07:23:33.785Z,39.53
2018-11-14T07:26:01.125Z,30.45
2018-11-14T07:28:28.595Z,32.28
2018-11-14T07:30:56.459Z,35.08
2018-11-14T07:33:23.747Z,37.17
2018-11-14T07:35:51.303Z,29.92
2018-11-14T07:38:40.742Z,40.28
2018-11-14T07:41:09.570Z,32.08
2018-11-14T07:43:37.873Z,30.48
2018-11-14T07:46:05.686Z,34.65
2018-11-14T07:48:33.334Z,29.25
2018-11-14T07:51:00.689Z,31.62
2018-11-14T07:53:28.161Z,29.35
2018-11-14T07:55:56.255Z,31.97
2018-11-14T07:58:23.824Z,26.42
2018-11-14T08:00:51.338Z,30.08
2018-11-14T08:03:18.623Z,22.20
2018-11-14T08:05:46.295Z,28.20
2018-11-14T08:08:13.626Z,25.40
2018-11-14T08:10:41.138Z,21.25
2018-11-14T08:13:08.739Z,20.43
2018-11-14T08:15:36.077Z,19.52
2018-11-14T08:18:03.955Z,27.13
2018-11-14T08:20:31.539Z,20.32
2018-11-14T08:22:58.850Z,20.50
2018-11-14T08:25:26.179Z,21.75
2018-11-14T08:27:53.831Z,20.50
2018-11-14T08:30:21.411Z,19.03
2018-11-14T08:32:49.016Z,18.30
2018-11-14T08:35:16.333Z,17.70
2018-11-14T08:37:43.690Z,14.27
2018-11-14T08:40:11.079Z,15.80
2018-11-14T08:42:38.776Z,19.37
2018-11-14T08:45:07.069Z,17.57
2018-11-14T08:47:34.372Z,15.43
2018-11-14T08:50:01.687Z,14.50
2018-11-14T08:52:29.046Z,15.20
2018-11-14T08:54:56.375Z,14.10
2018-11-14T08:57:24.024Z,12.50
2018-11-14T08:59:51.348Z,12.90
2018-11-14T09:02:18.900Z,15.60
2018-11-14T09:04:46.287Z,13.43
2018-11-14T09:07:13.660Z,20.40
2018-11-14T09:09:40.999Z,11.30
2018-11-14T09:12:08.892Z,14.83
2018-11-14T09:14:36.912Z,13.33
2018-11-14T09:17:04.677Z,12.67
2018-11-14T09:19:32.014Z,10.37
2018-11-14T09:21:59.816Z,10.10
2018-11-14T09:24:27.429Z,12.43
2018-11-14T09:26:54.767Z,12.47
2018-11-14T09:29:22.152Z,9.90
2018-11-14T09:31:49.714Z,11.53
2018-11-14T09:34:17.008Z,14.50
2018-11-14T09:36:44.598Z,10.47
2018-11-14T09:39:13.104Z,12.73
2018-11-14T09:41:40.726Z,19.10
2018-11-14T09:44:08.362Z,10.17
2018-11-14T09:46:36.091Z,10.10
2018-11-14T09:49:04.001Z,12.00
2018-11-14T09:51:31.619Z,11.43
2018-11-14T09:53:58.969Z,9.60
2018-11-14T09:56:26.517Z,13.60
2018-11-14T09:58:54.049Z,10.60
2018-11-14T10:01:21.758Z,9.13
2018-11-14T10:03:49.305Z,9.73
2018-11-14T10:06:16.587Z,11.67
2018-11-14T10:08:44.127Z,9.57
2018-11-14T10:11:11.631Z,9.10
2018-11-14T10:13:38.988Z,16.23
2018-11-14T10:16:06.558Z,11.80
2018-11-14T10:18:34.369Z,7.90
2018-11-14T10:21:01.910Z,13.03
2018-11-14T10:23:29.473Z,9.97
2018-11-14T10:25:56.793Z,9.33
2018-11-14T10:28:24.124Z,6.40
2018-11-14T10:30:51.462Z,5.87
2018-11-14T10:33:18.802Z,10.57
2018-11-14T10:35:46.125Z,10.37
2018-11-14T10:38:13.410Z,14.40
2018-11-14T10:40:41.148Z,11.00
2018-11-14T10:43:08.722Z,11.57
2018-11-14T10:45:36.547Z,9.00
2018-11-14T10:48:04.273Z,12.17
2018-11-14T10:50:31.972Z,9.50
2018-11-14T10:52:59.297Z,9.10
2018-11-14T10:55:26.959Z,9.07
2018-11-14T10:57:54.308Z,7.20
2018-11-14T11:00:28.529Z,8.83
2018-11-14T11:03:01.657Z,7.97
2018-11-14T11:07:36.515Z,8.63
2018-11-14T11:10:07.418Z,8.17
2018-11-14T11:12:40.266Z,10.20
2018-11-14T11:15:13.033Z,9.60
2018-11-14T11:17:46.534Z,10.43
2018-11-14T11:20:14.077Z,10.07
2018-11-14T11:22:41.603Z,10.97
2018-11-14T11:25:09.219Z,9.17
2018-11-14T11:27:36.502Z,13.30
2018-11-14T11:30:03.864Z,9.00
2018-11-14T11:32:31.352Z,7.70
2018-11-14T11:34:58.663Z,12.50
2018-11-14T11:37:26.374Z,6.67
2018-11-14T11:39:54.026Z,11.27
2018-11-14T11:42:21.453Z,8.07
2018-11-14T11:44:48.740Z,7.67
2018-11-14T11:47:16.090Z,8.70
2018-11-14T11:49:43.607Z,6.17
2018-11-14T11:52:11.208Z,11.90
2018-11-14T11:54:38.524Z,7.65
2018-11-14T11:57:06.092Z,13.45
2018-11-14T11:59:33.461Z,9.08
2018-11-14T12:02:00.747Z,6.62
2018-11-14T12:04:28.546Z,10.50
2018-11-14T12:06:55.839Z,9.00
2018-11-14T12:09:23.198Z,11.03
2018-11-14T12:11:51.326Z,7.22
2018-11-14T12:14:18.708Z,6.70
2018-11-14T12:16:46.335Z,9.50
2018-11-14T12:19:13.944Z,10.38
2018-11-14T12:21:41.158Z,7.33
2018-11-14T12:24:08.551Z,15.08
2018-11-14T12:26:35.863Z,7.30
2018-11-14T12:29:03.147Z,7.65
2018-11-14T12:31:30.500Z,7.65
2018-11-14T12:33:58.076Z,5.50
2018-11-14T12:36:25.636Z,6.62
2018-11-14T12:38:53.076Z,6.05
2018-11-14T12:41:20.375Z,8.03
2018-11-14T12:43:47.719Z,8.13
2018-11-14T12:46:15.076Z,6.28
2018-11-14T12:48:42.414Z,4.87
2018-11-14T12:51:09.957Z,6.67
2018-11-14T12:53:37.498Z,8.98
2018-11-14T12:56:05.069Z,5.67
2018-11-14T12:58:33.308Z,5.12
2018-11-14T13:01:00.906Z,5.08
2018-11-14T13:03:28.216Z,4.78
2018-11-14T13:05:55.576Z,6.40
2018-11-14T13:08:23.105Z,7.33
2018-11-14T13:10:51.138Z,5.03
2018-11-14T13:13:18.437Z,8.65
2018-11-14T13:15:46.093Z,6.78
2018-11-14T13:18:13.573Z,6.60
2018-11-14T13:20:40.858Z,9.88
2018-11-14T13:23:08.159Z,6.95
2018-11-14T13:25:35.540Z,7.53
2018-11-14T13:28:03.297Z,5.80
2018-11-14T13:30:30.649Z,11.03
2018-11-14T13:32:57.974Z,8.23
2018-11-14T13:35:25.751Z,7.67
2018-11-14T13:37:53.093Z,6.42
2018-11-14T13:40:20.681Z,9.20
2018-11-14T13:42:47.979Z,9.43
2018-11-14T13:45:17.268Z,8.60
2018-11-14T13:47:44.700Z,7.03
2018-11-14T13:50:13.678Z,7.17
2018-11-14T13:52:40.969Z,9.33
2018-11-14T13:55:09.319Z,6.95
2018-11-14T13:57:36.665Z,6.35
2018-11-14T14:00:04.030Z,12.58
2018-11-14T14:02:31.346Z,6.67
2018-11-14T14:04:58.988Z,5.95
2018-11-14T14:07:26.324Z,6.40
2018-11-14T14:09:53.656Z,9.18
2018-11-14T14:12:20.967Z,7.55
2018-11-14T14:14:48.547Z,6.08
2018-11-14T14:17:15.876Z,6.90
2018-11-14T14:19:43.195Z,6.65
2018-11-14T14:22:10.553Z,10.80
2018-11-14T14:24:38.316Z,9.65
2018-11-14T14:27:05.713Z,9.18
2018-11-14T14:29:33.057Z,4.45
2018-11-14T14:32:00.644Z,7.47
2018-11-14T14:34:27.932Z,5.60
2018-11-14T14:36:55.285Z,7.65
2018-11-14T14:39:23.082Z,7.97
2018-11-14T14:41:50.499Z,9.53
2018-11-14T14:44:17.832Z,6.30
2018-11-14T14:46:45.378Z,8.48
2018-11-14T14:49:13.077Z,8.30
2018-11-14T14:51:40.618Z,7.28
2018-11-14T14:54:07.941Z,7.10
2018-11-14T14:56:35.585Z,10.58
2018-11-14T14:59:03.046Z,7.12
2018-11-14T15:01:30.344Z,7.45
2018-11-14T15:03:58.106Z,5.75
2018-11-14T15:06:25.440Z,6.10
2018-11-14T15:08:52.898Z,4.75
2018-11-14T15:11:20.509Z,8.30
2018-11-14T15:13:48.048Z,6.50
2018-11-14T15:16:16.183Z,6.33
2018-11-14T15:18:43.784Z,8.65
2018-11-14T15:21:12.173Z,6.12
2018-11-14T15:23:39.702Z,6.50
2018-11-14T15:26:07.016Z,7.62
2018-11-14T15:28:35.039Z,6.70
2018-11-14T15:31:02.767Z,6.83
2018-11-14T15:33:30.612Z,7.08
2018-11-14T15:35:58.224Z,7.35
2018-11-14T15:38:25.523Z,7.00
2018-11-14T15:40:53.260Z,6.47
2018-11-14T15:43:20.535Z,6.20
2018-11-14T15:45:47.850Z,11.83
2018-11-14T15:48:15.304Z,8.98
2018-11-14T15:50:42.839Z,6.20
2018-11-14T15:53:10.808Z,7.90
2018-11-14T15:55:38.143Z,7.47
2018-11-14T15:58:05.513Z,7.00
2018-11-14T16:00:34.336Z,6.25
2018-11-14T16:03:02.059Z,8.45
2018-11-14T16:05:30.693Z,8.95
2018-11-14T16:08:00.141Z,8.73
2018-11-14T16:10:28.656Z,11.35
2018-11-14T16:12:56.013Z,7.22
2018-11-14T16:15:26.416Z,5.37
2018-11-14T16:17:53.792Z,7.80
2018-11-14T16:20:22.477Z,16.00
2018-11-14T16:22:49.885Z,7.60
2018-11-14T16:25:18.336Z,6.55
2018-11-14T16:27:51.128Z,6.20
2018-11-14T16:30:23.916Z,8.93
2018-11-14T16:32:52.835Z,6.12
2018-11-14T16:35:21.519Z,7.22
2018-11-14T16:37:49.006Z,7.67
2018-11-14T16:40:19.464Z,7.85
2018-11-14T16:42:47.136Z,10.78
2018-11-14T16:45:15.012Z,6.83
2018-11-14T16:47:42.463Z,8.23
2018-11-14T16:50:10.966Z,8.25
2018-11-14T16:52:38.452Z,6.33
2018-11-14T16:55:06.982Z,10.63
2018-11-14T16:57:34.343Z,6.25
2018-11-14T17:00:03.848Z,9.00
2018-11-14T17:02:31.912Z,8.80
2018-11-14T17:04:59.429Z,8.93
2018-11-14T17:07:27.159Z,5.67
2018-11-14T17:09:54.464Z,5.20
2018-11-14T17:12:22.765Z,7.47
2018-11-14T17:14:50.753Z,6.17
2018-11-14T17:17:18.167Z,8.00
2018-11-14T17:19:47.864Z,10.45
2018-11-14T17:22:15.170Z,9.25
2018-11-14T17:24:43.815Z,9.63
2018-11-14T17:27:11.560Z,6.30
2018-11-14T17:29:39.195Z,14.50
2018-11-14T17:32:06.586Z,7.00
2018-11-14T17:34:34.316Z,7.12
2018-11-14T17:37:02.292Z,9.00
2018-11-14T17:39:32.879Z,9.60
2018-11-14T17:42:02.605Z,7.85
2018-11-14T17:44:31.057Z,11.75
2018-11-14T17:47:00.944Z,7.95
2018-11-14T17:49:28.446Z,8.90
2018-11-14T17:51:57.307Z,14.87
2018-11-14T17:54:25.269Z,8.60
2018-11-14T17:56:53.278Z,7.80
2018-11-14T17:59:21.424Z,12.10
2018-11-14T18:01:49.766Z,13.08
2018-11-14T18:04:17.055Z,13.22
2018-11-14T18:06:44.434Z,11.43
2018-11-14T18:09:13.423Z,12.33
2018-11-14T18:11:41.154Z,13.03
2018-11-14T18:14:09.044Z,12.98
2018-11-14T18:16:36.981Z,10.32
2018-11-14T18:19:04.488Z,7.40
2018-11-14T18:21:31.954Z,11.60
2018-11-14T18:23:59.527Z,8.58
2018-11-14T18:26:26.998Z,9.20
2018-11-14T18:28:54.855Z,8.93
2018-11-14T18:31:22.244Z,10.03
2018-11-14T18:33:49.931Z,9.70
2018-11-14T18:36:17.427Z,17.20
2018-11-14T18:38:44.769Z,11.93
2018-11-14T18:41:13.272Z,11.15
2018-11-14T18:43:41.295Z,7.55
2018-11-14T18:46:09.168Z,15.18
2018-11-14T18:48:36.559Z,11.68
2018-11-14T18:51:04.831Z,12.10
2018-11-14T18:53:32.577Z,12.95
2018-11-14T18:56:02.007Z,11.57
2018-11-14T18:58:30.767Z,10.58
2018-11-14T19:00:58.402Z,12.80
2018-11-14T19:03:26.077Z,11.43
2018-11-14T19:05:53.959Z,11.20
2018-11-14T19:08:21.978Z,10.32
2018-11-14T19:10:49.599Z,12.95
2018-11-14T19:13:17.430Z,14.28
2018-11-14T19:15:44.832Z,11.45
2018-11-14T19:18:12.969Z,14.53
2018-11-14T19:20:41.004Z,12.47
2018-11-14T19:23:08.693Z,17.23
2018-11-14T19:25:40.878Z,15.38
2018-11-14T19:28:11.957Z,22.15
2018-11-14T19:30:42.266Z,22.60
2018-11-14T19:33:11.467Z,14.73
2018-11-14T19:35:41.898Z,21.50
2018-11-14T19:38:11.301Z,17.50
2018-11-14T19:40:38.835Z,19.77
2018-11-14T19:43:10.172Z,19.27
2018-11-14T19:45:38.668Z,15.72
2018-11-14T19:48:06.162Z,21.48
2018-11-14T19:50:33.934Z,19.75
2018-11-14T19:53:02.849Z,21.50
2018-11-14T19:55:36.896Z,19.73
2018-11-14T19:58:05.484Z,24.52
2018-11-14T20:00:36.041Z,20.23
2018-11-14T20:03:03.645Z,18.27
2018-11-14T20:05:31.119Z,24.10
2018-11-14T20:07:58.952Z,21.42
2018-11-14T20:10:28.816Z,24.32
2018-11-14T20:12:56.666Z,23.42
2018-11-14T20:15:25.595Z,25.23
2018-11-14T20:17:53.315Z,24.57
2018-11-14T20:20:27.504Z,21.07
2018-11-14T20:22:55.111Z,19.05
2018-11-14T20:25:23.722Z,17.15
2018-11-14T20:27:51.294Z,22.27
2018-11-14T20:30:21.108Z,19.00
2018-11-14T20:32:49.434Z,18.80
2018-11-14T20:35:17.971Z,24.15
2018-11-14T20:37:45.610Z,23.02
2018-11-14T20:40:18.248Z,22.60
2018-11-14T20:42:46.223Z,21.52
2018-11-14T20:45:15.340Z,21.73
2018-11-14T20:47:42.875Z,24.40
2018-11-14T20:50:11.793Z,22.45
2018-11-14T20:52:39.228Z,22.65
2018-11-14T20:55:08.093Z,16.93
2018-11-14T20:57:35.523Z,21.93
2018-11-14T21:00:02.869Z,18.92
2018-11-14T21:02:30.337Z,22.25
2018-11-14T21:04:57.700Z,21.60
2018-11-14T21:07:25.085Z,23.50
2018-11-14T21:09:52.569Z,21.33
2018-11-14T21:12:20.151Z,20.17
2018-11-14T21:14:47.531Z,22.93
2018-11-14T21:17:15.108Z,22.80
2018-11-14T21:19:42.922Z,25.82
2018-11-14T21:22:12.005Z,19.85
2018-11-14T21:24:39.426Z,23.00
2018-11-14T21:27:07.907Z,21.62
2018-11-14T21:29:36.270Z,24.02
2018-11-14T21:32:03.656Z,21.52
2018-11-14T21:34:30.983Z,22.13
2018-11-14T21:36:59.551Z,24.10
2018-11-14T21:39:26.894Z,18.92
2018-11-14T21:41:54.482Z,21.10
2018-11-14T21:44:21.808Z,24.27
2018-11-14T21:46:49.130Z,24.05
2018-11-14T21:49:22.006Z,23.62
2018-11-14T21:51:49.537Z,21.15
2018-11-14T21:54:16.948Z,23.85
2018-11-14T21:56:44.312Z,21.12
2018-11-14T21:59:11.869Z,26.23
2018-11-14T22:01:39.655Z,21.82
2018-11-14T22:04:07.061Z,23.77
2018-11-14T22:06:34.634Z,22.77
2018-11-14T22:09:02.017Z,23.30
2018-11-14T22:11:29.595Z,24.27
2018-11-14T22:13:57.244Z,23.60
2018-11-14T22:16:24.955Z,21.23
2018-11-14T22:18:52.670Z,24.27
2018-11-14T22:21:20.020Z,22.00
2018-11-14T22:23:47.336Z,23.70
2018-11-14T22:26:14.997Z,24.67
2018-11-14T22:28:42.287Z,21.48
2018-11-14T22:31:09.819Z,24.23
2018-11-14T22:33:37.579Z,22.15
2018-11-14T22:36:04.928Z,20.15
2018-11-14T22:38:32.489Z,26.95
2018-11-14T22:41:00.017Z,20.10
2018-11-14T22:43:27.819Z,20.40
2018-11-14T22:45:55.380Z,24.43
2018-11-14T22:48:22.825Z,21.60
2018-11-14T22:50:50.358Z,20.27
2018-11-14T22:53:17.912Z,23.10
2018-11-14T22:55:45.298Z,24.85
2018-11-14T22:58:12.906Z,27.80
2018-11-14T23:00:44.757Z,20.35
2018-11-14T23:03:12.280Z,22.90
2018-11-14T23:05:39.633Z,19.80
2018-11-14T23:08:06.951Z,18.55
2018-11-14T23:10:34.280Z,23.12
2018-11-14T23:13:01.842Z,20.17
2018-11-14T23:15:29.204Z,19.48
2018-11-14T23:17:57.030Z,24.75
2018-11-14T23:20:24.703Z,22.55
2018-11-14T23:22:52.765Z,23.52
2018-11-14T23:25:20.609Z,20.82
2018-11-14T23:27:49.955Z,21.17
2018-11-14T23:30:18.303Z,22.77
2018-11-14T23:32:46.995Z,18.95
2018-11-14T23:35:15.351Z,22.02
2018-11-14T23:37:43.133Z,21.02
2018-11-14T23:40:10.603Z,23.27
2018-11-14T23:42:38.251Z,20.45
2018-11-14T23:45:07.064Z,21.73
2018-11-14T23:47:34.384Z,21.73
2018-11-14T23:50:01.959Z,22.20
2018-11-14T23:52:29.503Z,24.37
2018-11-14T23:54:56.843Z,24.10
2018-11-14T23:57:24.651Z,24.77
2018-11-14T23:59:52.312Z,23.92
